createdAt,value
2022-08-17T00:01:40.002Z,22.80
2022-08-17T00:04:19.537Z,23.10
2022-08-17T00:09:18.780Z,22.70
2022-08-17T00:12:34.743Z,22.80
2022-08-17T00:14:36.584Z,22.70
2022-08-17T00:17:07.117Z,22.80
2022-08-17T00:19:34.268Z,22.70
2022-08-17T00:22:33.616Z,22.60
2022-08-17T00:24:50.418Z,22.70
2022-08-17T00:27:17.975Z,22.60
2022-08-17T00:29:46.019Z,22.60
2022-08-17T00:33:14.905Z,22.70
2022-08-17T00:35:08.074Z,22.80
2022-08-17T00:37:35.091Z,22.60
2022-08-17T00:40:02.187Z,22.60
2022-08-17T00:42:31.281Z,22.60
2022-08-17T00:44:59.069Z,22.60
2022-08-17T00:47:26.663Z,22.80
2022-08-17T00:49:54.191Z,22.50
2022-08-17T00:52:25.486Z,22.60
2022-08-17T00:54:55.448Z,22.70
2022-08-17T00:57:30.019Z,22.60
2022-08-17T01:00:12.405Z,22.60
2022-08-17T01:02:43.340Z,22.40
2022-08-17T01:05:31.544Z,22.60
2022-08-17T01:08:00.832Z,22.40
2022-08-17T01:10:58.555Z,22.70
2022-08-17T01:13:24.877Z,22.40
2022-08-17T01:16:15.990Z,22.20
2022-08-17T01:18:48.197Z,22.40
2022-08-17T01:21:40.970Z,22.20
2022-08-17T01:24:09.657Z,22.20
2022-08-17T01:26:42.096Z,22.10
2022-08-17T01:29:09.968Z,22.40
2022-08-17T01:31:42.625Z,22.20
2022-08-17T01:34:11.394Z,22.20
2022-08-17T01:36:42.446Z,22.30
2022-08-17T01:39:14.893Z,22.30
2022-08-17T01:41:42.295Z,22.10
2022-08-17T01:44:10.665Z,22.10
2022-08-17T01:46:38.634Z,22.00
2022-08-17T01:49:11.149Z,22.20
2022-08-17T01:51:39.081Z,22.10
2022-08-17T01:54:12.723Z,22.10
2022-08-17T01:56:44.218Z,22.20
2022-08-17T01:59:15.352Z,22.10
2022-08-17T02:01:43.683Z,22.20
2022-08-17T02:04:11.372Z,22.30
2022-08-17T02:06:45.207Z,22.20
2022-08-17T02:09:25.397Z,22.10
2022-08-17T02:11:54.804Z,21.90
2022-08-17T02:14:24.560Z,22.00
2022-08-17T02:16:52.431Z,21.90
2022-08-17T02:19:19.610Z,21.90
2022-08-17T02:21:49.291Z,21.80
2022-08-17T02:25:00.888Z,21.90
2022-08-17T02:27:10.540Z,21.90
2022-08-17T02:29:38.416Z,22.00
2022-08-17T02:32:05.788Z,22.00
2022-08-17T02:34:33.360Z,21.90
2022-08-17T02:37:00.406Z,22.00
2022-08-17T02:39:27.393Z,21.90
2022-08-17T02:42:02.269Z,21.90
2022-08-17T02:44:38.891Z,22.00
2022-08-17T02:47:07.833Z,21.90
2022-08-17T02:49:34.865Z,21.70
2022-08-17T02:52:04.627Z,21.70
2022-08-17T02:54:39.864Z,21.70
2022-08-17T02:57:08.013Z,21.70
2022-08-17T02:59:34.944Z,21.70
2022-08-17T03:02:04.190Z,21.50
2022-08-17T03:04:31.799Z,21.50
2022-08-17T03:07:02.983Z,21.40
2022-08-17T03:12:12.979Z,21.60
2022-08-17T03:14:41.976Z,21.70
2022-08-17T03:17:10.152Z,21.60
2022-08-17T03:19:37.703Z,21.40
2022-08-17T03:22:35.679Z,21.40
2022-08-17T03:24:58.078Z,21.40
2022-08-17T03:27:24.997Z,21.30
2022-08-17T03:29:51.884Z,21.40
2022-08-17T03:32:20.814Z,21.30
2022-08-17T03:34:48.084Z,21.50
2022-08-17T03:37:15.120Z,21.40
2022-08-17T03:39:43.051Z,21.40
2022-08-17T03:42:32.343Z,21.70
2022-08-17T03:45:01.616Z,21.70
2022-08-17T03:47:47.006Z,21.80
2022-08-17T03:50:33.668Z,21.60
2022-08-17T03:53:21.325Z,22.00
2022-08-17T03:56:06.934Z,21.90
2022-08-17T03:58:34.048Z,22.00
2022-08-17T04:01:01.437Z,21.90
2022-08-17T04:03:28.915Z,21.90
2022-08-17T04:05:56.014Z,22.00
2022-08-17T04:08:23.088Z,22.00
2022-08-17T04:10:50.298Z,22.30
2022-08-17T04:13:24.868Z,22.10
2022-08-17T04:15:53.460Z,22.40
2022-08-17T04:18:20.483Z,22.20
2022-08-17T04:20:47.458Z,22.50
2022-08-17T04:23:19.568Z,22.50
2022-08-17T04:25:50.000Z,22.40
2022-08-17T04:28:18.902Z,22.60
2022-08-17T04:30:47.428Z,22.40
2022-08-17T04:33:24.126Z,22.50
2022-08-17T04:36:02.420Z,22.40
2022-08-17T04:38:32.037Z,22.60
2022-08-17T04:41:18.543Z,22.70
2022-08-17T04:43:47.185Z,22.80
2022-08-17T04:46:19.429Z,22.80
2022-08-17T04:48:52.765Z,23.10
2022-08-17T04:51:38.638Z,23.40
2022-08-17T04:54:18.141Z,23.70
2022-08-17T04:56:45.684Z,23.70
2022-08-17T04:59:20.267Z,24.00
2022-08-17T05:01:51.635Z,23.90
2022-08-17T05:04:34.811Z,24.10
2022-08-17T05:07:04.796Z,24.20
2022-08-17T05:12:02.471Z,24.50
2022-08-17T05:29:44.744Z,25.00
2022-08-17T05:32:39.173Z,25.10
2022-08-17T05:35:00.835Z,25.40
2022-08-17T05:37:28.178Z,25.10
2022-08-17T05:39:55.304Z,25.00
2022-08-17T05:42:22.708Z,25.00
2022-08-17T05:44:49.681Z,25.10
2022-08-17T05:47:18.354Z,25.00
2022-08-17T05:49:49.199Z,24.90
2022-08-17T05:52:37.519Z,24.80
2022-08-17T05:55:04.558Z,25.00
2022-08-17T05:57:53.341Z,24.90
2022-08-17T06:00:30.390Z,24.80
2022-08-17T06:03:21.878Z,24.70
2022-08-17T06:06:06.906Z,24.80
2022-08-17T06:09:22.938Z,24.80
2022-08-17T06:15:07.456Z,24.90
2022-08-17T06:17:35.493Z,25.20
2022-08-17T06:20:10.380Z,25.00
2022-08-17T06:22:47.840Z,25.00
2022-08-17T06:25:23.611Z,25.00
2022-08-17T06:30:59.759Z,25.50
2022-08-17T06:33:35.497Z,25.70
2022-08-17T06:36:15.927Z,25.70
2022-08-17T06:38:58.192Z,25.80
2022-08-17T06:41:43.022Z,25.80
2022-08-17T06:44:50.194Z,25.90
2022-08-17T06:47:28.321Z,25.90
2022-08-17T06:50:22.405Z,25.60
2022-08-17T06:55:49.368Z,25.90
2022-08-17T06:58:22.330Z,25.70
2022-08-17T07:00:58.538Z,25.50
2022-08-17T07:03:38.793Z,25.70
2022-08-17T07:06:13.366Z,25.70
2022-08-17T07:08:58.046Z,25.80
2022-08-17T07:11:36.781Z,26.20
2022-08-17T07:14:24.599Z,26.00
2022-08-17T07:16:55.447Z,26.20
2022-08-17T07:19:26.653Z,26.10
2022-08-17T07:22:14.493Z,26.20
2022-08-17T07:25:02.595Z,25.90
2022-08-17T07:27:35.514Z,26.00
2022-08-17T07:30:12.504Z,26.00
2022-08-17T07:32:42.417Z,26.00
2022-08-17T07:35:41.016Z,26.20
2022-08-17T07:38:25.240Z,26.40
2022-08-17T07:40:57.928Z,26.50
2022-08-17T07:43:31.850Z,26.50
2022-08-17T07:46:23.753Z,26.60
2022-08-17T07:48:54.511Z,26.70
2022-08-17T07:51:26.617Z,26.80
2022-08-17T07:54:14.141Z,27.00
2022-08-17T07:56:56.996Z,27.00
2022-08-17T07:59:36.889Z,26.90
2022-08-17T08:02:13.452Z,26.90
2022-08-17T08:05:02.042Z,26.80
2022-08-17T08:07:35.679Z,26.90
2022-08-17T08:10:13.066Z,27.00
2022-08-17T08:12:47.447Z,27.20
2022-08-17T08:15:15.395Z,27.30
2022-08-17T08:17:54.274Z,27.30
2022-08-17T08:20:53.903Z,27.40
2022-08-17T08:23:32.893Z,27.50
2022-08-17T08:26:17.943Z,27.50
2022-08-17T08:29:29.761Z,27.40
2022-08-17T08:32:19.514Z,27.50
2022-08-17T08:35:13.108Z,27.70
2022-08-17T08:38:10.901Z,27.80
2022-08-17T08:40:52.483Z,27.80
2022-08-17T08:43:50.843Z,27.80
2022-08-17T08:46:52.661Z,27.90
2022-08-17T08:50:03.368Z,27.80
2022-08-17T08:52:49.614Z,27.90
2022-08-17T08:55:35.691Z,27.80
2022-08-17T08:58:32.068Z,27.80
2022-08-17T09:01:09.211Z,27.90
2022-08-17T09:04:21.374Z,27.60
2022-08-17T09:07:10.590Z,27.70
2022-08-17T09:09:51.245Z,27.80
2022-08-17T09:12:41.048Z,27.80
2022-08-17T09:15:40.229Z,27.80
2022-08-17T09:19:00.906Z,27.70
2022-08-17T09:21:08.052Z,27.70
2022-08-17T09:23:45.446Z,27.70
2022-08-17T09:26:25.573Z,27.70
2022-08-17T09:29:01.675Z,27.80
2022-08-17T09:31:46.467Z,27.90
2022-08-17T09:34:22.334Z,28.00
2022-08-17T09:37:20.415Z,28.10
2022-08-17T09:39:58.532Z,28.10
2022-08-17T09:42:47.006Z,28.20
2022-08-17T09:45:57.351Z,28.20
2022-08-17T09:48:57.698Z,28.20
2022-08-17T09:51:40.258Z,28.30
2022-08-17T09:54:42.520Z,28.20
2022-08-17T09:57:30.232Z,28.20
2022-08-17T10:00:19.024Z,28.40
2022-08-17T10:03:09.648Z,28.40
2022-08-17T10:05:46.793Z,28.40
2022-08-17T10:08:52.639Z,28.40
2022-08-17T10:11:59.807Z,28.40
2022-08-17T10:14:53.633Z,28.40
2022-08-17T10:17:38.061Z,28.40
2022-08-17T10:20:17.401Z,28.50
2022-08-17T10:23:09.004Z,28.50
2022-08-17T10:26:02.987Z,28.40
2022-08-17T10:28:37.006Z,28.50
2022-08-17T10:34:21.013Z,28.70
2022-08-17T10:37:13.055Z,28.70
2022-08-17T10:40:24.839Z,28.70
2022-08-17T10:43:15.457Z,28.60
2022-08-17T10:46:14.565Z,28.60
2022-08-17T10:49:16.927Z,28.60
2022-08-17T10:51:54.427Z,28.60
2022-08-17T10:54:36.425Z,28.80
2022-08-17T10:57:29.282Z,28.80
2022-08-17T11:00:03.559Z,28.80
2022-08-17T11:02:41.429Z,28.70
2022-08-17T11:05:38.961Z,28.90
2022-08-17T11:08:47.057Z,28.90
2022-08-17T11:11:35.943Z,28.80
2022-08-17T11:14:41.369Z,29.00
2022-08-17T11:17:17.343Z,29.10
2022-08-17T11:19:53.502Z,29.20
2022-08-17T11:23:26.863Z,29.20
2022-08-17T11:25:56.532Z,29.20
2022-08-17T11:28:35.336Z,29.10
2022-08-17T11:31:38.323Z,29.00
2022-08-17T11:34:27.021Z,28.90
2022-08-17T11:37:08.090Z,28.80
2022-08-17T11:39:54.427Z,28.90
2022-08-17T11:42:30.816Z,28.90
2022-08-17T11:45:32.285Z,28.90
2022-08-17T11:48:40.358Z,28.90
2022-08-17T11:51:46.719Z,28.90
2022-08-17T11:54:34.917Z,28.80
2022-08-17T11:57:25.905Z,28.90
2022-08-17T12:00:10.572Z,29.00
2022-08-17T12:02:47.084Z,29.00
2022-08-17T12:05:22.753Z,29.00
2022-08-17T12:08:18.512Z,29.10
2022-08-17T12:11:06.472Z,29.00
2022-08-17T12:13:50.711Z,28.90
2022-08-17T12:16:20.198Z,29.00
2022-08-17T12:18:59.022Z,29.00
2022-08-17T12:21:43.063Z,29.10
2022-08-17T12:24:50.577Z,29.00
2022-08-17T12:28:04.363Z,29.00
2022-08-17T12:30:21.632Z,28.90
2022-08-17T12:32:49.102Z,29.00
2022-08-17T12:35:48.230Z,28.90
2022-08-17T12:38:32.461Z,29.00
2022-08-17T12:41:22.483Z,29.10
2022-08-17T12:43:56.594Z,29.20
2022-08-17T12:46:23.629Z,29.20
2022-08-17T12:48:58.971Z,29.10
2022-08-17T12:51:29.185Z,29.20
2022-08-17T12:53:56.759Z,29.10
2022-08-17T12:56:23.851Z,29.10
2022-08-17T12:58:56.625Z,29.20
2022-08-17T13:01:25.148Z,29.20
2022-08-17T13:03:55.207Z,29.30
2022-08-17T13:06:45.980Z,29.10
2022-08-17T13:09:35.644Z,29.10
2022-08-17T13:12:07.930Z,29.00
2022-08-17T13:14:35.469Z,29.00
2022-08-17T13:17:08.595Z,29.00
2022-08-17T13:19:49.656Z,29.20
2022-08-17T13:22:18.430Z,29.20
2022-08-17T13:24:57.791Z,29.10
2022-08-17T13:27:27.854Z,28.90
2022-08-17T13:29:59.623Z,28.90
2022-08-17T13:32:39.887Z,28.80
2022-08-17T13:35:40.047Z,28.80
2022-08-17T13:38:10.430Z,28.70
2022-08-17T13:40:55.322Z,28.80
2022-08-17T13:43:48.533Z,28.90
2022-08-17T13:46:24.961Z,29.00
2022-08-17T13:49:03.936Z,28.90
2022-08-17T13:51:41.697Z,28.80
2022-08-17T13:54:21.124Z,28.80
2022-08-17T13:56:57.663Z,28.80
2022-08-17T13:59:54.395Z,28.80
2022-08-17T14:02:27.916Z,28.90
2022-08-17T14:04:56.929Z,28.90
2022-08-17T14:07:31.504Z,28.90
2022-08-17T14:10:09.408Z,28.90
2022-08-17T14:12:39.697Z,28.80
2022-08-17T14:15:08.229Z,28.70
2022-08-17T14:17:38.884Z,28.80
2022-08-17T14:20:09.611Z,28.70
2022-08-17T14:22:39.432Z,28.70
2022-08-17T14:25:10.302Z,28.70
2022-08-17T14:27:51.852Z,28.70
2022-08-17T14:30:25.638Z,28.70
2022-08-17T14:32:54.895Z,28.80
2022-08-17T14:35:23.262Z,28.80
2022-08-17T14:37:51.399Z,28.70
2022-08-17T14:40:20.915Z,28.70
2022-08-17T14:42:48.381Z,28.70
2022-08-17T14:45:32.039Z,28.70
2022-08-17T14:48:01.239Z,28.70
2022-08-17T14:50:28.287Z,28.70
2022-08-17T14:52:59.295Z,28.70
2022-08-17T14:55:29.865Z,28.70
2022-08-17T14:57:57.045Z,28.60
2022-08-17T15:00:24.073Z,28.50
2022-08-17T15:02:58.584Z,28.40
2022-08-17T15:05:30.672Z,28.40
2022-08-17T15:07:58.896Z,28.40
2022-08-17T15:10:26.128Z,28.40
2022-08-17T15:12:54.530Z,28.30
2022-08-17T15:15:21.468Z,28.40
2022-08-17T15:17:48.470Z,28.40
2022-08-17T15:20:22.916Z,28.40
2022-08-17T15:22:51.015Z,28.50
2022-08-17T15:25:19.427Z,28.40
2022-08-17T15:27:47.527Z,28.40
2022-08-17T15:30:15.392Z,28.40
2022-08-17T15:32:51.434Z,28.40
2022-08-17T15:35:30.581Z,28.40
2022-08-17T15:38:03.519Z,28.40
2022-08-17T15:40:37.710Z,28.30
2022-08-17T15:43:27.257Z,28.20
2022-08-17T15:46:01.475Z,28.20
2022-08-17T15:48:42.996Z,28.10
2022-08-17T15:51:17.575Z,28.10
2022-08-17T15:53:50.611Z,28.20
2022-08-17T15:56:18.710Z,28.10
2022-08-17T15:58:47.777Z,28.10
2022-08-17T16:01:18.722Z,28.10
2022-08-17T16:04:04.377Z,28.10
2022-08-17T16:06:35.581Z,28.10
2022-08-17T16:09:02.675Z,28.00
2022-08-17T16:11:30.688Z,27.90
2022-08-17T16:13:57.889Z,27.90
2022-08-17T16:16:24.946Z,27.90
2022-08-17T16:18:58.309Z,28.10
2022-08-17T16:21:27.543Z,27.90
2022-08-17T16:24:13.717Z,27.90
2022-08-17T16:26:42.566Z,28.00
2022-08-17T16:29:09.793Z,28.00
2022-08-17T16:31:37.863Z,28.00
2022-08-17T16:34:17.114Z,27.90
2022-08-17T16:36:55.014Z,27.90
2022-08-17T16:39:26.932Z,27.80
2022-08-17T16:41:54.312Z,27.80
2022-08-17T16:44:22.084Z,27.80
2022-08-17T16:46:50.304Z,27.70
2022-08-17T16:49:36.009Z,27.70
2022-08-17T16:52:12.748Z,27.60
2022-08-17T16:54:43.971Z,27.50
2022-08-17T16:57:12.990Z,27.60
2022-08-17T16:59:43.617Z,27.50
2022-08-17T17:02:15.151Z,27.50
2022-08-17T17:05:24.501Z,27.30
2022-08-17T17:07:55.506Z,27.10
2022-08-17T17:10:40.144Z,27.10
2022-08-17T17:13:20.955Z,27.00
2022-08-17T17:16:13.142Z,26.90
2022-08-17T17:18:47.643Z,27.00
2022-08-17T17:21:19.919Z,26.80
2022-08-17T17:23:52.843Z,26.70
2022-08-17T17:26:44.453Z,26.50
2022-08-17T17:29:25.613Z,26.40
2022-08-17T17:32:09.574Z,26.30
2022-08-17T17:34:38.096Z,26.20
2022-08-17T17:37:14.880Z,26.00
2022-08-17T17:39:56.873Z,25.90
2022-08-17T17:42:31.509Z,25.70
2022-08-17T17:45:01.576Z,25.50
2022-08-17T17:47:29.769Z,25.40
2022-08-17T17:49:56.952Z,25.40
2022-08-17T17:52:48.067Z,25.30
2022-08-17T17:55:36.810Z,25.20
2022-08-17T17:58:19.758Z,25.10
2022-08-17T18:01:09.596Z,25.00
2022-08-17T18:03:59.137Z,24.90
2022-08-17T18:06:50.954Z,24.80
2022-08-17T18:09:36.541Z,24.70
2022-08-17T18:12:50.015Z,24.60
2022-08-17T18:15:51.831Z,24.50
2022-08-17T18:18:18.885Z,24.40
2022-08-17T18:20:56.128Z,24.30
2022-08-17T18:23:28.027Z,24.30
2022-08-17T18:25:57.128Z,24.20
2022-08-17T18:28:35.802Z,24.20
2022-08-17T18:31:20.677Z,24.10
2022-08-17T18:33:52.513Z,24.10
2022-08-17T18:36:36.459Z,24.00
2022-08-17T18:39:11.913Z,24.10
2022-08-17T18:41:48.425Z,23.80
2022-08-17T18:44:29.621Z,23.80
2022-08-17T18:47:18.073Z,23.80
2022-08-17T18:49:57.532Z,23.80
2022-08-17T18:52:30.242Z,23.70
2022-08-17T18:55:15.907Z,23.70
2022-08-17T18:57:49.498Z,23.70
2022-08-17T19:00:41.109Z,23.70
2022-08-17T19:03:17.877Z,23.70
2022-08-17T19:05:54.932Z,23.60
2022-08-17T19:08:30.813Z,23.40
2022-08-17T19:11:21.547Z,23.40
2022-08-17T19:14:01.034Z,23.30
2022-08-17T19:16:50.009Z,23.20
2022-08-17T19:19:48.113Z,23.20
2022-08-17T19:22:28.914Z,23.20
2022-08-17T19:25:09.697Z,23.30
2022-08-17T19:27:46.316Z,23.10
2022-08-17T19:30:16.766Z,23.30
2022-08-17T19:32:44.060Z,23.20
2022-08-17T19:35:17.369Z,23.10
2022-08-17T19:38:12.986Z,23.10
2022-08-17T19:40:54.568Z,23.20
2022-08-17T19:43:25.169Z,23.00
2022-08-17T19:46:26.225Z,23.10
2022-08-17T19:49:14.665Z,22.80
2022-08-17T19:51:44.778Z,22.70
2022-08-17T19:54:15.072Z,22.70
2022-08-17T19:57:01.747Z,22.70
2022-08-17T19:59:36.030Z,22.40
2022-08-17T20:04:53.224Z,22.30
2022-08-17T20:09:49.547Z,22.20
2022-08-17T20:12:24.107Z,22.20
2022-08-17T20:14:57.276Z,22.10
2022-08-17T20:17:37.333Z,22.10
2022-08-17T20:20:21.588Z,22.10
2022-08-17T20:23:11.951Z,22.10
2022-08-17T20:28:24.050Z,21.90
2022-08-17T20:33:32.648Z,21.60
2022-08-17T20:36:14.467Z,21.50
2022-08-17T20:41:31.083Z,21.50
2022-08-17T20:43:58.805Z,21.30
2022-08-17T20:46:37.999Z,21.40
2022-08-17T20:52:38.534Z,21.30
2022-08-17T20:55:05.945Z,21.50
2022-08-17T20:57:32.846Z,21.30
2022-08-17T21:00:15.335Z,21.40
2022-08-17T21:05:40.486Z,21.10
2022-08-17T21:13:14.003Z,20.90
2022-08-17T21:15:44.126Z,20.80
2022-08-17T21:18:28.573Z,20.80
2022-08-17T21:21:17.792Z,21.00
2022-08-17T21:24:09.176Z,21.00
2022-08-17T21:27:21.893Z,21.00
2022-08-17T21:32:30.131Z,20.70
2022-08-17T21:35:28.646Z,20.80
2022-08-17T21:38:05.034Z,20.60
2022-08-17T21:40:33.877Z,20.70
2022-08-17T21:43:16.436Z,20.60
2022-08-17T21:45:44.114Z,20.50
2022-08-17T21:48:20.761Z,20.50
2022-08-17T21:53:56.512Z,20.50
2022-08-17T21:56:31.809Z,20.50
2022-08-17T21:59:06.528Z,20.30
2022-08-17T22:01:40.570Z,20.50
2022-08-17T22:04:32.314Z,20.30
2022-08-17T22:07:02.193Z,20.30
2022-08-17T22:09:32.647Z,20.30
2022-08-17T22:12:29.990Z,20.30
2022-08-17T22:15:04.462Z,20.50
2022-08-17T22:17:46.301Z,20.50
2022-08-17T22:20:20.032Z,20.30
2022-08-17T22:23:08.728Z,20.20
2022-08-17T22:25:56.567Z,20.20
2022-08-17T22:29:02.048Z,20.50
2022-08-17T22:31:51.054Z,20.40
2022-08-17T22:34:18.256Z,20.40
2022-08-17T22:36:46.015Z,20.40
2022-08-17T22:39:13.492Z,20.30
2022-08-17T22:42:00.888Z,20.30
2022-08-17T22:44:37.874Z,20.30
2022-08-17T22:47:27.575Z,20.20
2022-08-17T22:50:12.082Z,20.20
2022-08-17T22:53:02.764Z,19.80
2022-08-17T22:55:52.644Z,19.90
2022-08-17T22:58:42.197Z,19.80
2022-08-17T23:01:25.605Z,19.80
2022-08-17T23:03:57.978Z,20.00
2022-08-17T23:06:25.478Z,19.70
2022-08-17T23:08:57.836Z,19.70
2022-08-17T23:11:48.928Z,19.70
2022-08-17T23:14:19.904Z,19.60
2022-08-17T23:16:48.821Z,19.60
2022-08-17T23:19:19.532Z,19.70
2022-08-17T23:21:47.393Z,19.70
2022-08-17T23:24:24.357Z,19.60
2022-08-17T23:26:51.697Z,19.60
2022-08-17T23:29:21.387Z,19.70
2022-08-17T23:31:49.315Z,19.70
2022-08-17T23:34:18.528Z,19.60
2022-08-17T23:39:27.535Z,19.40
2022-08-17T23:41:57.664Z,19.30
2022-08-17T23:44:24.878Z,19.50
2022-08-17T23:51:48.851Z,19.20
2022-08-17T23:57:02.521Z,19.10
2022-08-17T23:59:29.547Z,19.10
